createdAt,value
2018-08-07T00:00:32.512Z,56.60
2018-08-07T00:03:01.748Z,56.20
2018-08-07T00:05:31.070Z,56.40
2018-08-07T00:08:00.580Z,56.40
2018-08-07T00:10:29.971Z,56.70
2018-08-07T00:12:59.247Z,56.80
2018-08-07T00:15:29.240Z,56.70
2018-08-07T00:17:58.440Z,56.60
2018-08-07T00:20:27.686Z,56.70
2018-08-07T00:22:57.003Z,56.60
2018-08-07T00:25:26.267Z,56.60
2018-08-07T00:27:55.495Z,56.50
2018-08-07T00:30:24.868Z,56.40
2018-08-07T00:32:54.118Z,56.50
2018-08-07T00:35:23.511Z,57.40
2018-08-07T00:37:52.899Z,57.00
2018-08-07T00:40:22.258Z,57.00
2018-08-07T00:42:51.561Z,57.30
2018-08-07T00:45:21.731Z,57.70
2018-08-07T00:47:51.296Z,58.00
2018-08-07T00:50:21.846Z,58.20
2018-08-07T00:55:21.179Z,58.70
2018-08-07T00:57:51.016Z,58.80
2018-08-07T01:00:20.352Z,59.00
2018-08-07T01:02:49.628Z,59.10
2018-08-07T01:05:19.823Z,59.40
2018-08-07T01:07:49.223Z,59.40
2018-08-07T01:10:19.214Z,59.30
2018-08-07T01:12:48.610Z,59.60
2018-08-07T01:15:20.611Z,59.80
2018-08-07T01:17:50.033Z,59.80
2018-08-07T01:20:22.458Z,59.80
2018-08-07T01:22:51.918Z,59.90
2018-08-07T01:25:23.738Z,60.00
2018-08-07T01:27:53.003Z,60.00
2018-08-07T01:30:25.139Z,59.80
2018-08-07T01:32:55.277Z,59.70
2018-08-07T01:35:25.363Z,59.80
2018-08-07T01:37:54.718Z,60.20
2018-08-07T01:40:24.095Z,59.70
2018-08-07T01:42:53.383Z,59.40
2018-08-07T01:45:22.751Z,59.30
2018-08-07T01:47:51.979Z,59.10
2018-08-07T01:50:21.283Z,58.70
2018-08-07T01:52:50.591Z,58.40
2018-08-07T01:55:21.367Z,58.20
2018-08-07T01:57:50.647Z,57.90
2018-08-07T02:00:20.304Z,57.60
2018-08-07T02:02:49.967Z,57.40
2018-08-07T02:05:19.451Z,57.20
2018-08-07T02:07:48.956Z,56.90
2018-08-07T02:10:19.515Z,56.80
2018-08-07T02:12:48.759Z,56.60
2018-08-07T02:15:18.282Z,56.70
2018-08-07T02:25:19.049Z,56.60
2018-08-07T02:27:48.721Z,56.70
2018-08-07T02:30:18.767Z,56.60
2018-08-07T02:35:17.375Z,57.20
2018-08-07T02:37:47.648Z,57.30
2018-08-07T02:40:17.508Z,57.60
2018-08-07T02:42:46.991Z,57.80
2018-08-07T02:45:17.847Z,58.10
2018-08-07T02:47:47.526Z,58.10
2018-08-07T02:50:19.128Z,58.40
2018-08-07T02:52:48.480Z,58.50
2018-08-07T02:55:17.884Z,58.70
2018-08-07T02:57:47.177Z,58.90
2018-08-07T03:00:22.903Z,59.00
2018-08-07T03:02:52.246Z,59.10
2018-08-07T03:05:22.192Z,59.20
2018-08-07T03:07:52.434Z,59.20
2018-08-07T03:10:21.750Z,59.20
2018-08-07T03:12:51.400Z,59.20
2018-08-07T03:15:21.291Z,59.10
2018-08-07T03:17:50.780Z,58.90
2018-08-07T03:20:20.140Z,58.60
2018-08-07T03:22:49.375Z,58.40
2018-08-07T03:25:18.735Z,58.00
2018-08-07T03:27:47.988Z,58.00
2018-08-07T03:30:18.462Z,57.80
2018-08-07T03:32:48.020Z,57.70
2018-08-07T03:35:17.278Z,58.10
2018-08-07T03:37:46.619Z,57.60
2018-08-07T03:40:17.403Z,57.60
2018-08-07T03:42:46.889Z,57.50
2018-08-07T03:45:18.460Z,57.40
2018-08-07T03:47:48.444Z,57.40
2018-08-07T03:50:17.868Z,57.40
2018-08-07T03:52:47.268Z,57.40
2018-08-07T03:55:18.011Z,57.40
2018-08-07T03:57:47.790Z,57.50
2018-08-07T04:00:19.086Z,57.60
2018-08-07T04:02:48.366Z,57.60
2018-08-07T04:05:18.119Z,57.80
2018-08-07T04:07:47.456Z,58.00
2018-08-07T04:10:18.229Z,58.10
2018-08-07T04:12:47.595Z,58.20
2018-08-07T04:15:18.030Z,58.20
2018-08-07T04:17:47.355Z,58.20
2018-08-07T04:20:18.057Z,58.20
2018-08-07T04:22:47.318Z,58.20
2018-08-07T04:25:16.587Z,58.20
2018-08-07T04:27:45.865Z,58.00
2018-08-07T04:30:16.885Z,58.00
2018-08-07T04:32:46.398Z,58.00
2018-08-07T04:35:16.399Z,58.00
2018-08-07T04:37:46.196Z,58.00
2018-08-07T04:40:15.419Z,58.10
2018-08-07T04:42:44.731Z,58.10
2018-08-07T04:45:15.208Z,58.10
2018-08-07T04:47:45.258Z,58.00
2018-08-07T04:50:14.452Z,58.20
2018-08-07T04:52:43.990Z,58.30
2018-08-07T04:55:13.358Z,58.20
2018-08-07T05:00:13.959Z,58.20
2018-08-07T05:02:43.903Z,58.20
2018-08-07T05:05:13.183Z,58.10
2018-08-07T05:07:42.519Z,58.30
2018-08-07T05:10:14.967Z,58.50
2018-08-07T05:12:45.044Z,58.50
2018-08-07T05:15:15.206Z,58.60
2018-08-07T05:17:45.695Z,58.60
2018-08-07T05:20:14.929Z,58.60
2018-08-07T05:22:44.239Z,58.60
2018-08-07T05:25:13.887Z,58.60
2018-08-07T05:27:43.155Z,58.50
2018-08-07T05:32:42.201Z,58.60
2018-08-07T05:35:12.711Z,58.70
2018-08-07T05:37:42.173Z,58.90
2018-08-07T05:40:11.969Z,58.80
2018-08-07T05:42:42.016Z,58.90
2018-08-07T05:45:13.116Z,58.90
2018-08-07T05:47:42.397Z,58.80
2018-08-07T05:50:14.356Z,58.90
2018-08-07T05:52:43.598Z,58.80
2018-08-07T05:55:13.140Z,58.80
2018-08-07T05:57:42.472Z,58.80
2018-08-07T06:00:14.191Z,58.80
2018-08-07T06:02:43.618Z,59.00
2018-08-07T06:05:12.817Z,58.90
2018-08-07T06:07:42.115Z,58.80
2018-08-07T06:10:12.867Z,58.70
2018-08-07T06:12:42.250Z,58.60
2018-08-07T06:15:14.847Z,58.50
2018-08-07T06:17:44.954Z,58.40
2018-08-07T06:20:14.257Z,58.30
2018-08-07T06:22:43.534Z,58.10
2018-08-07T06:25:12.807Z,58.20
2018-08-07T06:27:42.102Z,58.10
2018-08-07T06:30:15.574Z,57.70
2018-08-07T06:32:45.587Z,57.90
2018-08-07T06:35:14.992Z,57.60
2018-08-07T06:37:44.306Z,57.30
2018-08-07T06:40:14.289Z,57.10
2018-08-07T06:42:43.689Z,57.00
2018-08-07T06:45:14.517Z,57.40
2018-08-07T06:47:43.800Z,56.50
2018-08-07T06:50:15.936Z,56.20
2018-08-07T06:52:46.266Z,56.00
2018-08-07T06:55:15.657Z,55.60
2018-08-07T06:57:44.977Z,55.40
2018-08-07T07:00:23.660Z,55.10
2018-08-07T07:02:53.616Z,54.90
2018-08-07T07:05:23.126Z,54.70
2018-08-07T07:07:52.900Z,55.20
2018-08-07T07:10:22.241Z,54.40
2018-08-07T07:12:51.496Z,54.30
2018-08-07T07:15:20.767Z,54.10
2018-08-07T07:17:50.097Z,54.10
2018-08-07T07:20:19.996Z,53.90
2018-08-07T07:22:49.942Z,53.80
2018-08-07T07:25:19.386Z,53.60
2018-08-07T07:27:48.634Z,53.30
2018-08-07T07:30:22.023Z,53.10
2018-08-07T07:32:52.674Z,52.90
2018-08-07T07:35:22.021Z,52.70
2018-08-07T07:37:51.469Z,52.50
2018-08-07T07:40:20.857Z,52.30
2018-08-07T07:42:50.244Z,51.80
2018-08-07T07:45:20.430Z,51.30
2018-08-07T07:47:49.701Z,51.40
2018-08-07T07:50:20.864Z,51.20
2018-08-07T07:52:50.188Z,50.90
2018-08-07T07:55:19.887Z,51.20
2018-08-07T07:57:49.243Z,50.30
2018-08-07T08:00:21.625Z,50.20
2018-08-07T08:02:51.195Z,50.00
2018-08-07T08:05:21.624Z,49.60
2018-08-07T08:07:50.986Z,49.30
2018-08-07T08:10:20.341Z,49.20
2018-08-07T08:12:49.668Z,48.90
2018-08-07T08:15:19.501Z,48.60
2018-08-07T08:17:49.538Z,48.40
2018-08-07T08:20:21.228Z,48.20
2018-08-07T08:22:51.330Z,47.80
2018-08-07T08:25:20.722Z,47.60
2018-08-07T08:27:50.259Z,47.20
2018-08-07T08:30:19.534Z,46.90
2018-08-07T08:32:48.856Z,46.50
2018-08-07T08:35:19.289Z,46.10
2018-08-07T08:37:49.035Z,45.90
2018-08-07T08:40:21.142Z,45.70
2018-08-07T08:42:50.430Z,45.70
2018-08-07T08:45:21.234Z,45.10
2018-08-07T08:47:51.905Z,44.90
2018-08-07T08:50:22.228Z,44.80
2018-08-07T08:52:51.585Z,44.70
2018-08-07T08:55:21.311Z,44.50
2018-08-07T08:57:50.651Z,44.00
2018-08-07T09:00:23.491Z,44.00
2018-08-07T09:02:52.988Z,43.80
2018-08-07T09:05:22.404Z,43.70
2018-08-07T09:07:51.775Z,43.80
2018-08-07T09:10:25.965Z,43.60
2018-08-07T09:12:55.818Z,43.40
2018-08-07T09:15:25.229Z,43.50
2018-08-07T09:17:54.546Z,42.80
2018-08-07T09:22:55.172Z,43.20
2018-08-07T09:25:25.684Z,43.00
2018-08-07T09:27:55.092Z,42.90
2018-08-07T09:30:25.852Z,42.80
2018-08-07T09:32:55.783Z,42.60
2018-08-07T09:35:25.390Z,42.60
2018-08-07T09:37:55.180Z,42.70
2018-08-07T09:40:24.619Z,42.70
2018-08-07T09:42:55.115Z,42.70
2018-08-07T09:45:27.371Z,42.70
2018-08-07T09:47:56.673Z,42.60
2018-08-07T09:50:25.915Z,42.50
2018-08-07T09:52:55.220Z,42.50
2018-08-07T09:55:24.615Z,42.50
2018-08-07T09:57:54.023Z,42.40
2018-08-07T10:00:28.220Z,42.40
2018-08-07T10:03:00.281Z,42.40
2018-08-07T10:05:31.078Z,42.20
2018-08-07T10:08:36.762Z,42.00
2018-08-07T10:11:06.221Z,41.60
2018-08-07T10:13:35.457Z,41.40
2018-08-07T10:16:04.794Z,41.40
2018-08-07T10:18:34.031Z,41.20
2018-08-07T10:21:03.299Z,41.00
2018-08-07T10:23:32.577Z,40.70
2018-08-07T10:26:01.983Z,40.60
2018-08-07T10:28:31.305Z,40.50
2018-08-07T10:31:00.535Z,40.30
2018-08-07T10:33:29.819Z,40.10
2018-08-07T10:35:59.099Z,39.80
2018-08-07T10:38:28.421Z,39.60
2018-08-07T10:40:57.708Z,39.40
2018-08-07T10:43:26.999Z,39.20
2018-08-07T10:45:56.363Z,39.10
2018-08-07T10:48:25.668Z,38.90
2018-08-07T10:50:54.929Z,38.70
2018-08-07T10:53:24.291Z,38.60
2018-08-07T10:55:53.511Z,38.40
2018-08-07T10:58:22.902Z,38.10
2018-08-07T11:00:52.091Z,37.90
2018-08-07T11:03:21.409Z,37.70
2018-08-07T11:05:50.772Z,37.70
2018-08-07T11:08:20.002Z,37.60
2018-08-07T11:10:49.204Z,37.40
2018-08-07T11:13:18.471Z,37.00
2018-08-07T11:15:47.760Z,36.50
2018-08-07T11:18:17.072Z,36.60
2018-08-07T11:20:46.266Z,36.60
2018-08-07T11:23:15.595Z,36.70
2018-08-07T11:25:44.857Z,36.70
2018-08-07T11:28:14.066Z,36.70
2018-08-07T11:30:43.303Z,36.80
2018-08-07T11:33:12.604Z,36.70
2018-08-07T11:35:41.843Z,36.70
2018-08-07T11:38:11.271Z,36.80
2018-08-07T11:40:40.529Z,36.60
2018-08-07T11:43:10.032Z,36.20
2018-08-07T11:45:39.252Z,36.00
2018-08-07T11:48:08.715Z,35.90
2018-08-07T11:50:38.037Z,35.70
2018-08-07T11:53:07.359Z,35.40
2018-08-07T11:55:36.680Z,34.90
2018-08-07T11:58:06.625Z,34.50
2018-08-07T12:00:38.168Z,34.50
2018-08-07T12:03:09.588Z,34.40
2018-08-07T12:05:39.152Z,33.90
2018-08-07T12:08:09.078Z,33.60
2018-08-07T12:10:38.582Z,33.40
2018-08-07T12:13:07.883Z,33.40
2018-08-07T12:15:37.130Z,33.10
2018-08-07T12:18:07.011Z,32.70
2018-08-07T12:20:36.267Z,32.60
2018-08-07T12:23:05.576Z,32.40
2018-08-07T12:25:34.871Z,32.20
2018-08-07T12:28:04.139Z,32.20
2018-08-07T12:30:33.427Z,32.30
2018-08-07T12:33:02.735Z,32.20
2018-08-07T12:35:32.085Z,32.10
2018-08-07T12:38:01.287Z,32.20
2018-08-07T12:40:31.427Z,32.50
2018-08-07T12:43:03.314Z,32.70
2018-08-07T12:45:32.673Z,32.60
2018-08-07T12:48:02.562Z,32.90
2018-08-07T12:50:31.812Z,33.00
2018-08-07T12:53:01.106Z,33.10
2018-08-07T12:55:30.631Z,33.20
2018-08-07T12:58:00.183Z,33.20
2018-08-07T13:00:31.482Z,33.10
2018-08-07T13:03:05.570Z,33.20
2018-08-07T13:05:34.943Z,33.70
2018-08-07T13:08:04.240Z,34.30
2018-08-07T13:10:33.744Z,34.70
2018-08-07T13:13:02.978Z,35.50
2018-08-07T13:15:34.115Z,34.90
2018-08-07T13:18:03.439Z,35.70
2018-08-07T13:20:32.827Z,35.60
2018-08-07T13:23:06.895Z,36.40
2018-08-07T13:25:37.572Z,37.00
2018-08-07T13:28:07.007Z,37.00
2018-08-07T13:36:22.847Z,37.60
2018-08-07T13:38:52.094Z,37.90
2018-08-07T13:41:21.499Z,38.20
2018-08-07T13:43:51.029Z,38.50
2018-08-07T13:46:20.353Z,38.60
2018-08-07T13:48:49.559Z,38.70
2018-08-07T13:51:18.775Z,38.70
2018-08-07T13:53:48.504Z,38.70
2018-08-07T13:56:17.957Z,39.40
2018-08-07T13:58:47.226Z,38.60
2018-08-07T14:01:16.455Z,38.50
2018-08-07T14:03:45.623Z,38.50
2018-08-07T14:06:14.943Z,38.70
2018-08-07T14:08:44.107Z,38.60
2018-08-07T14:11:13.397Z,38.70
2018-08-07T14:13:42.756Z,38.70
2018-08-07T14:16:12.449Z,38.70
2018-08-07T14:18:41.823Z,38.70
2018-08-07T14:21:11.151Z,38.70
2018-08-07T14:23:40.408Z,38.80
2018-08-07T14:26:09.726Z,39.00
2018-08-07T14:28:39.044Z,39.60
2018-08-07T14:31:08.803Z,39.70
2018-08-07T14:33:38.078Z,39.70
2018-08-07T14:36:07.408Z,39.50
2018-08-07T14:38:36.624Z,39.40
2018-08-07T14:41:05.944Z,39.60
2018-08-07T14:43:35.262Z,39.80
2018-08-07T14:46:04.648Z,40.00
2018-08-07T14:48:33.917Z,40.20
2018-08-07T14:51:03.207Z,40.40
2018-08-07T14:53:32.634Z,40.60
2018-08-07T14:56:01.926Z,40.90
2018-08-07T14:58:31.279Z,40.90
2018-08-07T15:01:00.535Z,40.90
2018-08-07T15:03:32.166Z,41.20
2018-08-07T15:06:01.587Z,41.50
2018-08-07T15:08:30.768Z,41.70
2018-08-07T15:10:59.991Z,41.80
2018-08-07T15:13:29.471Z,41.90
2018-08-07T15:15:58.722Z,42.00
2018-08-07T15:18:28.810Z,42.00
2018-08-07T15:20:58.205Z,41.80
2018-08-07T15:23:29.230Z,41.50
2018-08-07T15:25:58.576Z,41.50
2018-08-07T15:28:31.797Z,41.40
2018-08-07T15:31:01.063Z,41.40
2018-08-07T15:33:30.428Z,41.40
2018-08-07T15:35:59.671Z,41.30
2018-08-07T15:38:29.013Z,41.00
2018-08-07T15:41:00.419Z,40.80
2018-08-07T15:43:29.697Z,40.40
2018-08-07T15:45:58.956Z,39.70
2018-08-07T15:48:28.249Z,39.20
2018-08-07T15:50:57.574Z,39.00
2018-08-07T15:53:26.918Z,38.80
2018-08-07T15:55:56.152Z,38.50
2018-08-07T15:58:25.416Z,38.10
2018-08-07T16:00:54.767Z,37.50
2018-08-07T16:03:24.123Z,36.80
2018-08-07T16:05:53.418Z,36.50
2018-08-07T16:08:22.679Z,36.20
2018-08-07T16:11:04.331Z,36.10
2018-08-07T16:13:41.326Z,36.10
2018-08-07T16:16:10.558Z,36.30
2018-08-07T16:18:39.868Z,36.30
2018-08-07T16:21:09.189Z,36.50
2018-08-07T16:23:38.451Z,36.60
2018-08-07T16:26:07.663Z,36.50
2018-08-07T16:28:36.822Z,36.60
2018-08-07T16:31:07.348Z,36.60
2018-08-07T16:33:36.662Z,36.40
2018-08-07T16:36:06.024Z,36.50
2018-08-07T16:38:35.281Z,36.50
2018-08-07T16:41:12.028Z,36.70
2018-08-07T16:43:41.347Z,36.70
2018-08-07T16:46:10.568Z,36.60
2018-08-07T16:48:41.216Z,36.40
2018-08-07T16:51:10.538Z,36.30
2018-08-07T16:53:39.755Z,36.10
2018-08-07T16:56:09.019Z,35.80
2018-08-07T16:58:38.269Z,35.70
2018-08-07T17:01:09.208Z,35.70
2018-08-07T17:03:38.411Z,35.90
2018-08-07T17:06:07.722Z,36.10
2018-08-07T17:08:37.511Z,36.30
2018-08-07T17:11:07.048Z,36.50
2018-08-07T17:13:47.136Z,36.70
2018-08-07T17:16:16.491Z,36.90
2018-08-07T17:18:45.764Z,36.90
2018-08-07T17:21:15.084Z,36.80
2018-08-07T17:23:44.809Z,36.70
2018-08-07T17:26:14.010Z,36.60
2018-08-07T17:28:43.338Z,36.60
2018-08-07T17:31:12.645Z,36.60
2018-08-07T17:33:42.008Z,36.70
2018-08-07T17:36:11.375Z,36.70
2018-08-07T17:38:40.712Z,37.40
2018-08-07T17:41:09.858Z,36.90
2018-08-07T17:43:39.129Z,37.10
2018-08-07T17:46:08.317Z,37.40
2018-08-07T17:48:37.460Z,37.50
2018-08-07T17:51:06.699Z,37.60
2018-08-07T17:53:36.427Z,37.60
2018-08-07T17:56:05.990Z,37.70
2018-08-07T17:58:38.264Z,37.80
2018-08-07T18:01:07.542Z,37.90
2018-08-07T18:03:36.836Z,38.50
2018-08-07T18:06:06.174Z,39.60
2018-08-07T18:08:35.655Z,40.60
2018-08-07T18:11:18.349Z,40.90
2018-08-07T18:13:47.800Z,41.70
2018-08-07T18:16:17.068Z,42.30
2018-08-07T18:18:46.474Z,42.70
2018-08-07T18:21:15.908Z,43.40
2018-08-07T18:23:45.282Z,43.90
2018-08-07T18:26:14.563Z,44.20
2018-08-07T18:28:43.864Z,44.20
2018-08-07T18:31:13.202Z,44.40
2018-08-07T18:33:42.522Z,44.70
2018-08-07T18:36:11.787Z,45.20
2018-08-07T18:38:41.018Z,45.50
2018-08-07T18:41:10.688Z,45.90
2018-08-07T18:43:40.013Z,46.30
2018-08-07T18:46:09.414Z,46.50
2018-08-07T18:48:38.682Z,47.30
2018-08-07T18:51:07.910Z,46.70
2018-08-07T18:53:37.217Z,46.80
2018-08-07T18:56:06.915Z,47.10
2018-08-07T18:58:36.171Z,47.60
2018-08-07T19:01:08.401Z,47.80
2018-08-07T19:03:49.632Z,47.80
2018-08-07T19:06:19.055Z,47.60
2018-08-07T19:08:49.883Z,47.50
2018-08-07T19:11:19.254Z,47.70
2018-08-07T19:13:48.672Z,48.10
2018-08-07T19:16:17.935Z,48.50
2018-08-07T19:27:39.327Z,49.00
2018-08-07T19:30:10.839Z,49.10
2018-08-07T19:32:40.451Z,49.40
2018-08-07T19:35:10.854Z,49.80
2018-08-07T19:37:40.209Z,49.80
2018-08-07T19:40:15.131Z,50.00
2018-08-07T19:42:45.088Z,50.10
2018-08-07T19:45:15.123Z,50.10
2018-08-07T19:47:44.974Z,50.30
2018-08-07T19:50:15.734Z,50.70
2018-08-07T19:52:45.044Z,51.10
2018-08-07T19:55:16.329Z,51.30
2018-08-07T19:57:45.855Z,51.30
2018-08-07T20:00:24.221Z,51.20
2018-08-07T20:02:56.613Z,51.20
2018-08-07T20:05:26.392Z,51.40
2018-08-07T20:07:56.546Z,51.40
2018-08-07T20:10:26.378Z,51.40
2018-08-07T20:13:17.719Z,51.60
2018-08-07T20:15:47.149Z,51.80
2018-08-07T20:18:16.412Z,51.80
2018-08-07T20:20:46.346Z,51.90
2018-08-07T20:23:16.815Z,52.10
2018-08-07T20:25:46.255Z,52.30
2018-08-07T20:28:15.771Z,52.40
2018-08-07T20:30:45.210Z,52.50
2018-08-07T20:33:14.965Z,52.60
2018-08-07T20:35:44.402Z,52.90
2018-08-07T20:38:13.923Z,53.30
2018-08-07T20:40:43.231Z,53.70
2018-08-07T20:43:12.596Z,53.80
2018-08-07T20:45:41.819Z,53.90
2018-08-07T20:48:10.993Z,54.10
2018-08-07T20:50:40.271Z,54.30
2018-08-07T20:53:09.887Z,54.50
2018-08-07T20:55:39.362Z,54.60
2018-08-07T20:58:09.175Z,54.60
2018-08-07T21:00:38.478Z,54.60
2018-08-07T21:03:07.800Z,54.50
2018-08-07T21:05:37.155Z,54.50
2018-08-07T21:08:07.345Z,54.50
2018-08-07T21:10:36.619Z,54.30
2018-08-07T21:13:05.828Z,54.20
2018-08-07T21:15:35.275Z,54.20
2018-08-07T21:18:04.575Z,54.10
2018-08-07T21:20:33.932Z,54.00
2018-08-07T21:23:03.247Z,54.00
2018-08-07T21:25:32.578Z,54.50
2018-08-07T21:28:01.896Z,54.10
2018-08-07T21:30:32.523Z,54.40
2018-08-07T21:33:01.803Z,54.90
2018-08-07T21:35:31.363Z,55.20
2018-08-07T21:38:00.688Z,55.40
2018-08-07T21:40:29.922Z,55.60
2018-08-07T21:42:59.216Z,55.60
2018-08-07T21:45:28.450Z,55.60
2018-08-07T21:47:57.771Z,55.70
2018-08-07T21:50:27.406Z,55.80
2018-08-07T21:52:56.575Z,55.80
2018-08-07T21:55:27.813Z,55.80
2018-08-07T21:57:57.112Z,55.80
2018-08-07T22:00:41.874Z,55.60
2018-08-07T22:03:11.239Z,55.40
2018-08-07T22:05:40.784Z,55.20
2018-08-07T22:08:10.889Z,55.00
2018-08-07T22:10:40.224Z,55.00
2018-08-07T22:13:09.667Z,55.00
2018-08-07T22:15:39.126Z,55.00
2018-08-07T22:18:10.075Z,55.00
2018-08-07T22:20:39.360Z,54.90
2018-08-07T22:23:08.715Z,54.80
2018-08-07T22:25:38.039Z,54.70
2018-08-07T22:28:07.511Z,54.70
2018-08-07T22:30:36.834Z,54.90
2018-08-07T22:33:06.737Z,54.90
2018-08-07T22:35:36.090Z,54.90
2018-08-07T22:38:05.483Z,55.00
2018-08-07T22:40:34.779Z,55.00
2018-08-07T22:43:04.123Z,55.10
2018-08-07T22:45:33.386Z,55.00
2018-08-07T22:48:02.493Z,55.00
2018-08-07T22:50:31.744Z,55.00
2018-08-07T22:53:00.995Z,55.10
2018-08-07T22:55:30.583Z,55.10
2018-08-07T22:57:59.967Z,55.10
2018-08-07T23:00:29.393Z,55.20
2018-08-07T23:02:59.834Z,55.20
2018-08-07T23:05:31.148Z,55.20
2018-08-07T23:08:00.668Z,55.20
2018-08-07T23:10:29.875Z,55.30
2018-08-07T23:12:59.192Z,55.20
2018-08-07T23:15:32.255Z,55.40
2018-08-07T23:18:01.476Z,55.50
2018-08-07T23:20:30.817Z,55.60
2018-08-07T23:23:00.226Z,55.80
2018-08-07T23:25:29.640Z,55.90
2018-08-07T23:27:59.157Z,55.90
2018-08-07T23:30:29.263Z,56.00
2018-08-07T23:32:58.467Z,56.00
2018-08-07T23:35:27.658Z,56.10
2018-08-07T23:37:57.012Z,56.20
2018-08-07T23:40:26.195Z,56.40
2018-08-07T23:42:55.450Z,56.40
2018-08-07T23:45:24.651Z,57.30
2018-08-07T23:47:53.975Z,56.90
2018-08-07T23:50:23.250Z,57.10
2018-08-07T23:52:52.455Z,57.50
2018-08-07T23:55:21.686Z,57.70
2018-08-07T23:57:50.920Z,58.30
